Go Pro

Civeo (CVEO) Institutional Ownership

Civeo logo
$32.94 -0.18 (-0.54%)
As of 08/28/2026 03:57 PM Eastern

Institutional Ownership Changes (13F Filings) for Civeo (NYSE:CVEO)

Current
Institutional Ownership
Percentage
81.44%
Number of
Institutional Buyers
(last 12 months)
20
Total
Institutional Inflows
(last 12 months)
$14.33M
Number of
Institutional Sellers
(last 12 months)
19
Total
Institutional Outflows
(last 12 months)
$31.66M
Get CVEO Insider Trade Alerts

Want to know when executives and insiders are buying or selling Civeo stock? Sign up for InsiderTrades.com's daily newsletter to get the latest insider transactions delivered to your inbox daily.

SMS is currently available in Australia, Belgium, Canada, France, Germany, Ireland, Italy, New Zealand, the Netherlands, Singapore, South Africa, Spain, Switzerland, the United Kingdom, and the United States. By entering your phone number and clicking the sign-up button, you agree to receive periodic text messages from MarketBeat at the phone number you submitted, including texts that may be sent using an automatic telephone dialing system. Message and data rates may apply. Message frequency will vary. Messages will consist of stock alerts, news stories, and partner advertisements/offers. Consent is not a condition of the purchase of any goods or services. Text HELP for help/customer support. Unsubscribe at any time by replying "STOP" to any text message that you receive from MarketBeat or by visiting our mailing preferences page. Read our full terms of service and privacy policy.
Skip Chart & View Institutional Buying and Selling Data

CVEO Institutional Buying and Selling by Quarter

Civeo Major Shareholders & Ownership History

Reporting DateMajor Shareholder NameShares HeldMarket Value% of PortfolioQuarterly Change in SharesOwnership in CompanyDetails
8/24/2026 California State Teachers Retirement System5,005$175K0.0%N/A0.048%
8/6/2026 Bank of New York Mellon Corp29,483$1.03M0.0%N/A0.285%
5/18/2026 Empowered Funds LLC88,160$2.33M0.0%-19.3%0.806%
5/18/2026 Engine Capital Management LP874,476$23.14M2.8%-34.6%7.993%
5/16/2026 Flat Footed LLC347,240$9.19M1.0%-25.0%3.174%
5/15/2026 OMERS ADMINISTRATION Corp8,200$217K0.0%N/A0.075%
5/15/2026 Punch & Associates Investment Management Inc.158,260$4.19M0.2%-19.5%1.447%
5/14/2026 Renaissance Technologies LLC501,732$13.28M0.0%-4.3%4.586%
5/14/2026 Arrowstreet Capital Limited Partnership126,478$3.35M0.0%+12.0%1.156%
5/14/2026 Sei Investments Co.71,487$1.89M0.0%+104.2%0.653%
5/7/2026 Dimensional Fund Advisors LP639,272$16.92M0.0%+1.8%5.843%
4/20/2026 Ritholtz Wealth Management40,352$1.07M0.0%+9.4%0.369%
2/19/2026 Invesco Ltd.10,649$244K0.0%-24.5%0.092%
2/18/2026 Empowered Funds LLC109,216$2.50M0.0%+5.5%0.948%
2/18/2026 Millennium Management LLC60,977$1.40M0.0%-52.7%0.530%
2/18/2026 Bridgeway Capital Management LLC188,169$4.30M0.1%-22.0%1.634%
2/17/2026 Punch & Associates Investment Management Inc.196,618$4.50M0.3%-28.7%1.707%
2/17/2026 ExodusPoint Capital Management LP25,049$573K0.0%N/A0.217%
2/17/2026 RBF Capital LLC55,039$1.26M0.1%-8.3%0.478%
2/13/2026 Charles Schwab Investment Management Inc.189,057$4.32M0.0%+38.6%1.641%
2/13/2026 Boston Partners161,911$3.70M0.0%+12.4%1.405%
2/12/2026 Renaissance Technologies LLC524,032$11.99M0.0%-5.5%4.549%
2/12/2026 Dimensional Fund Advisors LP628,158$14.37M0.0%+1.6%5.453%
2/11/2026 Empowered Funds LLC109,216$2.50M0.0%+5.5%0.948%
2/11/2026 Horizon Kinetics Asset Management LLC2,449,487$56.02M0.8%-9.0%21.263%
2/11/2026 LPL Financial LLC21,032$481K0.0%-5.7%0.183%
2/11/2026 O Shaughnessy Asset Management LLC81,411$1.86M0.0%-25.0%0.707%
2/10/2026 Lido Advisors LLC25,909$596K0.0%+12.7%0.225%
2/10/2026 Goldman Sachs Group Inc.100,116$2.29M0.0%N/A0.869%
2/9/2026 Blue Owl Capital Holdings LP370,530$8.47M0.6%+16.7%3.216%
2/9/2026 Clearstead Advisors LLC1,538$35K0.0%+191.8%0.013%
2/6/2026 GSA Capital Partners LLP51,113$1.17M0.1%+12.5%0.444%
1/23/2026 Ritholtz Wealth Management36,882$843K0.0%-12.0%0.320%
11/17/2025 Punch & Associates Investment Management Inc.275,585$6.34M0.4%+0.8%2.393%
11/17/2025 Moors & Cabot Inc.14,341$330K0.0%-12.7%0.125%
11/17/2025 Millennium Management LLC128,810$2.96M0.0%+217.7%1.119%
11/17/2025 Lido Advisors LLC22,993$529K0.0%-9.8%0.200%
11/14/2025 Raymond James Financial Inc.52,807$1.22M0.0%-8.9%0.459%
11/14/2025 Two Sigma Investments LP21,061$484K0.0%-30.9%0.183%
11/14/2025 Bridgeway Capital Management LLC241,169$5.55M0.1%-3.6%2.094%
Buy this stock today (Ad)

Marc Chaikin, founder of Chaikin Analytics, is sharing a strategy he calls 'Sell This, Buy That' - a way to move out of overpriced AI stocks before the tech trade breaks down and into lesser-known names with real potential to challenge the Mag 7. One pick he calls 'an upgrade to Tesla stock' is a little-known company that just inked a partnership with Nvidia, positioning it ahead of Tesla in the autonomous vehicle race.tc pixel

Get the name, ticker, and full Hotlist before markets open
11/13/2025 Boston Partners144,040$3.31M0.0%+8.6%1.251%
11/13/2025 Arrowstreet Capital Limited Partnership122,863$2.83M0.0%-25.4%1.067%
11/12/2025 Dimensional Fund Advisors LP618,374$14.22M0.0%+1.6%5.370%
11/12/2025 Royce & Associates LP38,342$882K0.0%-51.1%0.333%
11/7/2025 CenterBook Partners LP40,456$930K0.0%N/A0.351%
11/7/2025 GSA Capital Partners LLP45,432$1.05M0.1%N/A0.395%
10/28/2025 Ritholtz Wealth Management41,914$964K0.0%+29.4%0.334%
10/27/2025 Quent Capital LLC3,417$79K0.0%N/A0.027%
8/19/2025 State of Wyoming2,863$66K0.0%N/A0.023%
8/15/2025 Bridgeway Capital Management LLC250,252$5.78M0.1%-1.5%1.994%
8/14/2025 Raymond James Financial Inc.57,982$1.34M0.0%-4.6%0.462%
8/13/2025 Invesco Ltd.17,459$403K0.0%-19.2%0.139%
8/13/2025 Arrowstreet Capital Limited Partnership164,696$3.80M0.0%-14.0%1.312%
8/12/2025 Boston Partners132,608$3.06M0.0%-1.6%1.057%
8/12/2025 XTX Topco Ltd11,053$255K0.0%N/A0.088%
8/12/2025 Horizon Kinetics Asset Management LLC2,881,033$66.52M0.8%-3.0%22.956%
8/12/2025 American Century Companies Inc.470,826$10.87M0.0%+7.4%3.752%
8/7/2025 Boston Partners132,608$3.06M0.0%-1.6%1.057%
8/7/2025 Acadian Asset Management LLC152,514$3.52M0.0%-40.6%1.215%
8/7/2025 Connor Clark & Lunn Investment Management Ltd.37,029$855K0.0%+5.0%0.295%
7/28/2025 Ritholtz Wealth Management32,383$748K0.0%N/A0.241%
7/8/2025 Mad River Investors67,938$1.57M0.7%-14.5%0.505%
6/27/2025 Goldman Sachs Group Inc.8,858$204K0.0%N/A0.066%
5/21/2025Acadian Asset Management LLC256,697$5.90M0.0%-19.7%1.908%
5/16/2025Empowered Funds LLC106,318$2.45M0.0%+5.5%0.790%
5/16/2025Goldman Sachs Group Inc.8,858$204K0.0%N/A0.066%
5/16/2025Punch & Associates Investment Management Inc.273,470$6.29M0.4%-37.0%2.033%
5/16/2025Engine Capital Management LP1,338,114$30.78M5.8%N/A9.947%
5/16/2025Bridgeway Capital Management LLC253,973$5.84M0.1%+34.0%1.888%
5/15/2025Clough Capital Partners L P31,666$728K0.1%N/A0.235%
5/15/2025Topline Capital Management LLC212,823$4.90M1.1%+3.7%1.582%
5/13/2025Meros Investment Management LP107,053$2.46M1.4%-2.5%0.796%
5/13/2025American Century Companies Inc.438,374$10.08M0.0%+10.1%3.259%
5/13/2025Boston Partners134,703$3.10M0.0%-3.4%1.001%
5/12/2025Invesco Ltd.21,606$497K0.0%-12.3%0.161%
5/12/2025Connor Clark & Lunn Investment Management Ltd.35,270$811K0.0%-51.3%0.262%
5/9/2025Charles Schwab Investment Management Inc.46,500$1.07M0.0%N/A0.346%
5/8/2025Moors & Cabot Inc.16,757$385K0.0%-32.7%0.125%
5/7/2025TCW Group Inc.795,845$18.30M0.2%+2.0%5.874%
4/22/2025Mad River Investors79,497$1.83M0.8%-63.3%0.587%
3/24/2025Wellington Management Group LLP237,423$5.39M0.0%-30.6%1.739%
2/20/2025Mackenzie Financial Corp16,997$386K0.0%N/A0.123%
2/17/2025Two Sigma Investments LP53,026$1.21M0.0%-19.3%0.385%
2/17/2025Two Sigma Advisers LP71,066$1.62M0.0%-15.2%0.516%
2/17/2025Man Group plc71,597$1.63M0.0%+108.0%0.520%
2/17/2025Meros Investment Management LP109,761$2.49M1.1%+28.9%0.797%
2/17/2025Millennium Management LLC80,055$1.82M0.0%+18.2%0.581%
2/17/2025Lazard Asset Management LLC21,492$488K0.0%+24.0%0.156%
2/17/2025Bridgeway Capital Management LLC189,503$4.31M0.1%+9.5%1.376%
2/17/2025Balyasny Asset Management L.P.85,445$1.94M0.0%N/A0.621%
Ticker Revealed: Pre-IPO Access to "Next Elon Musk" Company (Ad)

We’ve found The Next Elon Musk… and what we believe to be the next Tesla. It’s already racked up $26 billion in government contracts. Peter Thiel just bet $1 Billion on it.tc pixel

👉 Unlock the ticker now and get it completely free.
2/17/2025BNP Paribas Financial Markets4,118$94K0.0%N/A0.030%
2/14/2025Lido Advisors LLC25,482$579K0.0%N/A0.185%
2/14/2025Topline Capital Management LLC205,246$4.66M0.9%N/A1.491%
2/14/2025RBF Capital LLC60,039$1.36M0.1%-23.9%0.436%
2/14/2025Dimensional Fund Advisors LP517,457$11.76M0.0%+7.4%3.758%
2/13/2025Marshall Wace LLP60,439$1.37M0.0%-14.4%0.439%
2/13/2025Sterling Capital Management LLC15,362$349K0.0%-58.6%0.112%
2/13/2025Raymond James Financial Inc.63,917$1.45M0.0%N/A0.464%
2/13/2025Renaissance Technologies LLC659,648$14.99M0.0%+3.2%4.790%
2/13/2025Wells Fargo & Company MN1,607$37K0.0%-87.7%0.012%


CVEO Institutional Ownership - Frequently Asked Questions

During the previous two years, 66 institutional investors and hedge funds held shares of Civeo. The most heavily invested institutionals were Horizon Kinetics Asset Management LLC ($56.02M), FMR LLC ($41.77M), Engine Capital Management LP ($23.14M), TCW Group Inc. ($18.30M), Dimensional Fund Advisors LP ($16.92M), Renaissance Technologies LLC ($13.28M), and American Century Companies Inc. ($10.87M).Learn more on Civeo's institutional investors.

81.44% of Civeo's stock is owned by institutional investors. Learn more on CVEO's institutional investor holdings.

Of the 47 institutional investors that purchased Civeo's stock in the last 24 months, the following investors and hedge funds have bought the highest volume of shares: Engine Capital Management LP ($1.34M), Topline Capital Management LLC ($212.82K), Raymond James Financial Inc. ($127.83K), American Century Companies Inc. ($127.35K), Goldman Sachs Group Inc. ($117.83K), Meros Investment Management LP ($109.76K), and Millennium Management LLC ($100.57K).

Institutional investors have bought a total of 597,454 shares in the last 24 months. This purchase volume represents approximately $14.33M in transactions.

Of the 19 institutional investors that sold Civeo's stock in the last 24 months, the following investors and hedge funds have sold the highest volume of shares: Engine Capital Management LP ($463.64K), Horizon Kinetics Asset Management LLC ($240.98K), Punch & Associates Investment Management Inc. ($117.33K), Flat Footed LLC ($115.52K), Millennium Management LLC ($67.83K), Bridgeway Capital Management LLC ($62.08K), and Renaissance Technologies LLC ($52.70K).

Institutional investors have sold a total of 1,284,104 shares in the last 24 months. This volume of shares sold represents approximately $31.66M in transactions.



Institutional ownership data for NYSE:CVEO is compiled from quarterly 13F filings submitted to the U.S. Securities and Exchange Commission (SEC), with the most recent received on 8/24/2026. New 13F filings are added each quarter as they're published.
From Our Partners